sensor_id;sensor_type;location;lat;lon;timestamp;pressure;altitude;pressure_sealevel;temperature;humidity
16613;BME280;8419;52.358;9.752;2023-06-14T00:01:37;101018.00;;;27.11;24.25
16613;BME280;8419;52.358;9.752;2023-06-14T00:04:23;101020.00;;;27.07;24.30
16613;BME280;8419;52.358;9.752;2023-06-14T00:07:10;101017.00;;;27.00;24.40
16613;BME280;8419;52.358;9.752;2023-06-14T00:09:59;101026.00;;;27.01;24.40
16613;BME280;8419;52.358;9.752;2023-06-14T00:12:45;101016.00;;;26.97;24.48
16613;BME280;8419;52.358;9.752;2023-06-14T00:15:31;101020.00;;;26.92;24.53
16613;BME280;8419;52.358;9.752;2023-06-14T00:18:17;101027.00;;;26.90;24.60
16613;BME280;8419;52.358;9.752;2023-06-14T00:21:03;101033.00;;;26.84;24.68
16613;BME280;8419;52.358;9.752;2023-06-14T00:23:49;101028.00;;;26.83;24.72
16613;BME280;8419;52.358;9.752;2023-06-14T00:26:35;101025.00;;;26.79;24.76
16613;BME280;8419;52.358;9.752;2023-06-14T00:29:20;101027.00;;;26.74;24.85
16613;BME280;8419;52.358;9.752;2023-06-14T00:32:07;101033.00;;;26.68;24.92
16613;BME280;8419;52.358;9.752;2023-06-14T00:34:52;101036.00;;;26.63;25.02
16613;BME280;8419;52.358;9.752;2023-06-14T00:37:38;101040.00;;;26.62;25.02
16613;BME280;8419;52.358;9.752;2023-06-14T00:40:24;101038.00;;;26.60;25.05
16613;BME280;8419;52.358;9.752;2023-06-14T00:43:09;101039.00;;;26.55;25.11
16613;BME280;8419;52.358;9.752;2023-06-14T00:45:55;101039.00;;;26.52;25.16
16613;BME280;8419;52.358;9.752;2023-06-14T00:48:41;101037.00;;;26.50;25.17
16613;BME280;8419;52.358;9.752;2023-06-14T00:51:27;101031.00;;;26.47;25.22
16613;BME280;8419;52.358;9.752;2023-06-14T00:54:13;101036.00;;;26.44;25.29
16613;BME280;8419;52.358;9.752;2023-06-14T00:56:58;101039.00;;;26.39;25.35
16613;BME280;8419;52.358;9.752;2023-06-14T00:59:47;101033.00;;;26.35;25.42
16613;BME280;8419;52.358;9.752;2023-06-14T01:02:33;101037.00;;;26.34;25.49
16613;BME280;8419;52.358;9.752;2023-06-14T01:05:20;101031.00;;;26.34;25.50
16613;BME280;8419;52.358;9.752;2023-06-14T01:08:18;101036.00;;;26.34;25.54
16613;BME280;8419;52.358;9.752;2023-06-14T01:11:14;101043.00;;;26.31;25.63
16613;BME280;8419;52.358;9.752;2023-06-14T01:14:03;101040.00;;;26.27;25.67
16613;BME280;8419;52.358;9.752;2023-06-14T01:16:50;101044.00;;;26.21;25.74
16613;BME280;8419;52.358;9.752;2023-06-14T01:19:38;101042.00;;;26.25;25.78
16613;BME280;8419;52.358;9.752;2023-06-14T01:22:24;101037.00;;;26.22;25.82
16613;BME280;8419;52.358;9.752;2023-06-14T01:25:11;101039.00;;;26.20;25.89
16613;BME280;8419;52.358;9.752;2023-06-14T01:28:00;101041.00;;;26.18;26.25
16613;BME280;8419;52.358;9.752;2023-06-14T01:30:48;101038.00;;;26.19;26.18
16613;BME280;8419;52.358;9.752;2023-06-14T01:33:37;101041.00;;;26.16;26.21
16613;BME280;8419;52.358;9.752;2023-06-14T01:36:26;101046.00;;;26.10;26.27
16613;BME280;8419;52.358;9.752;2023-06-14T01:39:14;101035.00;;;26.12;26.27
16613;BME280;8419;52.358;9.752;2023-06-14T01:42:00;101049.00;;;26.08;26.31
16613;BME280;8419;52.358;9.752;2023-06-14T01:44:48;101044.00;;;26.08;26.32
16613;BME280;8419;52.358;9.752;2023-06-14T01:47:35;101049.00;;;26.06;26.38
16613;BME280;8419;52.358;9.752;2023-06-14T01:50:21;101047.00;;;26.00;26.47
16613;BME280;8419;52.358;9.752;2023-06-14T01:53:07;101047.00;;;25.98;26.49
16613;BME280;8419;52.358;9.752;2023-06-14T01:55:53;101055.00;;;25.95;26.55
16613;BME280;8419;52.358;9.752;2023-06-14T01:58:39;101054.00;;;25.93;26.58
16613;BME280;8419;52.358;9.752;2023-06-14T02:01:25;101050.00;;;25.86;26.69
16613;BME280;8419;52.358;9.752;2023-06-14T02:04:15;101055.00;;;25.81;26.77
16613;BME280;8419;52.358;9.752;2023-06-14T02:07:00;101057.00;;;25.83;26.75
16613;BME280;8419;52.358;9.752;2023-06-14T02:09:47;101060.00;;;25.80;26.83
16613;BME280;8419;52.358;9.752;2023-06-14T02:12:33;101051.00;;;25.78;26.87
16613;BME280;8419;52.358;9.752;2023-06-14T02:15:18;101046.00;;;25.73;26.94
16613;BME280;8419;52.358;9.752;2023-06-14T02:18:04;101048.00;;;25.70;27.03
16613;BME280;8419;52.358;9.752;2023-06-14T02:20:50;101051.00;;;25.67;27.08
16613;BME280;8419;52.358;9.752;2023-06-14T02:23:36;101053.00;;;25.66;27.13
16613;BME280;8419;52.358;9.752;2023-06-14T02:26:21;101048.00;;;25.60;27.21
16613;BME280;8419;52.358;9.752;2023-06-14T02:29:08;101058.00;;;25.58;27.25
16613;BME280;8419;52.358;9.752;2023-06-14T02:31:56;101063.00;;;25.56;27.32
16613;BME280;8419;52.358;9.752;2023-06-14T02:34:41;101062.00;;;25.51;27.37
16613;BME280;8419;52.358;9.752;2023-06-14T02:37:27;101065.00;;;25.47;27.46
16613;BME280;8419;52.358;9.752;2023-06-14T02:40:13;101061.00;;;25.42;27.55
16613;BME280;8419;52.358;9.752;2023-06-14T02:42:58;101065.00;;;25.37;27.65
16613;BME280;8419;52.358;9.752;2023-06-14T02:45:44;101069.00;;;25.27;27.80
16613;BME280;8419;52.358;9.752;2023-06-14T02:48:30;101066.00;;;25.26;27.82
16613;BME280;8419;52.358;9.752;2023-06-14T02:51:15;101065.00;;;25.22;27.90
16613;BME280;8419;52.358;9.752;2023-06-14T02:54:01;101075.00;;;25.21;27.96
16613;BME280;8419;52.358;9.752;2023-06-14T02:56:46;101077.00;;;25.18;28.04
16613;BME280;8419;52.358;9.752;2023-06-14T02:59:32;101079.00;;;25.14;28.09
16613;BME280;8419;52.358;9.752;2023-06-14T03:02:18;101077.00;;;25.16;28.12
16613;BME280;8419;52.358;9.752;2023-06-14T03:05:04;101091.00;;;25.18;28.13
16613;BME280;8419;52.358;9.752;2023-06-14T03:07:53;101094.00;;;25.20;28.17
16613;BME280;8419;52.358;9.752;2023-06-14T03:10:39;101099.00;;;25.18;28.21
16613;BME280;8419;52.358;9.752;2023-06-14T03:13:24;101091.00;;;25.05;28.41
16613;BME280;8419;52.358;9.752;2023-06-14T03:16:11;101091.00;;;25.05;28.45
16613;BME280;8419;52.358;9.752;2023-06-14T03:18:57;101096.00;;;25.02;28.52
16613;BME280;8419;52.358;9.752;2023-06-14T03:21:43;101101.00;;;25.00;28.61
16613;BME280;8419;52.358;9.752;2023-06-14T03:24:29;101100.00;;;24.96;28.67
16613;BME280;8419;52.358;9.752;2023-06-14T03:27:16;101108.00;;;24.98;28.64
16613;BME280;8419;52.358;9.752;2023-06-14T03:30:02;101106.00;;;24.98;28.71
16613;BME280;8419;52.358;9.752;2023-06-14T03:32:50;101112.00;;;24.95;28.76
16613;BME280;8419;52.358;9.752;2023-06-14T03:35:37;101119.00;;;24.94;28.81
16613;BME280;8419;52.358;9.752;2023-06-14T03:38:23;101117.00;;;24.91;28.86
16613;BME280;8419;52.358;9.752;2023-06-14T03:41:09;101116.00;;;24.91;28.87
16613;BME280;8419;52.358;9.752;2023-06-14T03:43:54;101119.00;;;24.96;28.86
16613;BME280;8419;52.358;9.752;2023-06-14T03:46:39;101119.00;;;24.94;28.88
16613;BME280;8419;52.358;9.752;2023-06-14T03:49:25;101119.00;;;24.94;28.92
16613;BME280;8419;52.358;9.752;2023-06-14T03:52:10;101127.00;;;24.91;29.00
16613;BME280;8419;52.358;9.752;2023-06-14T03:54:56;101126.00;;;24.87;29.05
16613;BME280;8419;52.358;9.752;2023-06-14T03:57:44;101119.00;;;24.92;29.31
16613;BME280;8419;52.358;9.752;2023-06-14T04:00:30;101128.00;;;25.03;29.40
16613;BME280;8419;52.358;9.752;2023-06-14T04:03:17;101126.00;;;25.03;29.39
16613;BME280;8419;52.358;9.752;2023-06-14T04:06:05;101136.00;;;25.08;29.30
16613;BME280;8419;52.358;9.752;2023-06-14T04:08:52;101135.00;;;25.05;29.31
16613;BME280;8419;52.358;9.752;2023-06-14T04:11:38;101136.00;;;25.06;29.26
16613;BME280;8419;52.358;9.752;2023-06-14T04:14:23;101138.00;;;25.07;29.20
16613;BME280;8419;52.358;9.752;2023-06-14T04:17:09;101143.00;;;25.07;29.23
16613;BME280;8419;52.358;9.752;2023-06-14T04:19:54;101148.00;;;25.07;29.22
16613;BME280;8419;52.358;9.752;2023-06-14T04:22:40;101152.00;;;25.09;29.20
16613;BME280;8419;52.358;9.752;2023-06-14T04:25:28;101155.00;;;25.12;29.16
16613;BME280;8419;52.358;9.752;2023-06-14T04:28:16;101153.00;;;25.13;29.17
16613;BME280;8419;52.358;9.752;2023-06-14T04:31:02;101148.00;;;25.10;29.21
16613;BME280;8419;52.358;9.752;2023-06-14T04:33:47;101146.00;;;25.05;29.31
16613;BME280;8419;52.358;9.752;2023-06-14T04:36:36;101149.00;;;25.10;29.27
16613;BME280;8419;52.358;9.752;2023-06-14T04:39:23;101155.00;;;25.11;29.27
16613;BME280;8419;52.358;9.752;2023-06-14T04:42:08;101151.00;;;25.15;29.24
16613;BME280;8419;52.358;9.752;2023-06-14T04:44:57;101160.00;;;25.14;29.23
16613;BME280;8419;52.358;9.752;2023-06-14T04:47:42;101162.00;;;25.15;29.25
16613;BME280;8419;52.358;9.752;2023-06-14T04:50:28;101166.00;;;25.14;29.32
16613;BME280;8419;52.358;9.752;2023-06-14T04:53:19;101175.00;;;25.13;29.37
16613;BME280;8419;52.358;9.752;2023-06-14T04:56:08;101178.00;;;25.12;29.39
16613;BME280;8419;52.358;9.752;2023-06-14T04:58:55;101171.00;;;25.14;29.40
16613;BME280;8419;52.358;9.752;2023-06-14T05:01:41;101174.00;;;25.16;29.39
16613;BME280;8419;52.358;9.752;2023-06-14T05:04:31;101173.00;;;25.17;29.40
16613;BME280;8419;52.358;9.752;2023-06-14T05:07:18;101178.00;;;25.15;29.46
16613;BME280;8419;52.358;9.752;2023-06-14T05:10:04;101179.00;;;25.22;29.42
16613;BME280;8419;52.358;9.752;2023-06-14T05:12:50;101179.00;;;25.20;29.43
16613;BME280;8419;52.358;9.752;2023-06-14T05:15:37;101188.00;;;25.24;29.41
16613;BME280;8419;52.358;9.752;2023-06-14T05:18:22;101184.00;;;25.07;29.67
16613;BME280;8419;52.358;9.752;2023-06-14T05:21:10;101189.00;;;25.04;29.78
16613;BME280;8419;52.358;9.752;2023-06-14T05:23:56;101186.00;;;25.04;29.82
16613;BME280;8419;52.358;9.752;2023-06-14T05:26:42;101190.00;;;25.06;29.82
16613;BME280;8419;52.358;9.752;2023-06-14T05:29:28;101192.00;;;25.09;29.81
16613;BME280;8419;52.358;9.752;2023-06-14T05:32:13;101201.00;;;25.09;29.87
16613;BME280;8419;52.358;9.752;2023-06-14T05:34:59;101196.00;;;25.11;29.91
16613;BME280;8419;52.358;9.752;2023-06-14T05:37:44;101202.00;;;25.20;29.82
16613;BME280;8419;52.358;9.752;2023-06-14T05:40:30;101205.00;;;25.25;29.79
16613;BME280;8419;52.358;9.752;2023-06-14T05:43:17;101203.00;;;25.25;29.83
16613;BME280;8419;52.358;9.752;2023-06-14T05:46:02;101204.00;;;25.30;29.83
16613;BME280;8419;52.358;9.752;2023-06-14T05:48:49;101197.00;;;25.33;29.81
16613;BME280;8419;52.358;9.752;2023-06-14T05:51:37;101193.00;;;25.39;29.75
16613;BME280;8419;52.358;9.752;2023-06-14T05:54:23;101205.00;;;25.41;29.78
16613;BME280;8419;52.358;9.752;2023-06-14T05:57:10;101197.00;;;25.39;29.90
16613;BME280;8419;52.358;9.752;2023-06-14T05:59:55;101202.00;;;25.44;29.88
16613;BME280;8419;52.358;9.752;2023-06-14T06:02:41;101206.00;;;25.48;29.88
16613;BME280;8419;52.358;9.752;2023-06-14T06:05:34;101205.00;;;25.50;29.89
16613;BME280;8419;52.358;9.752;2023-06-14T06:08:22;101206.00;;;25.54;29.89
16613;BME280;8419;52.358;9.752;2023-06-14T06:11:12;101206.00;;;25.64;29.75
16613;BME280;8419;52.358;9.752;2023-06-14T06:13:58;101216.00;;;25.50;30.00
16613;BME280;8419;52.358;9.752;2023-06-14T06:16:43;101210.00;;;25.57;29.94
16613;BME280;8419;52.358;9.752;2023-06-14T06:19:30;101203.00;;;25.59;29.96
16613;BME280;8419;52.358;9.752;2023-06-14T06:22:15;101206.00;;;25.64;29.91
16613;BME280;8419;52.358;9.752;2023-06-14T06:25:02;101212.00;;;25.67;29.87
16613;BME280;8419;52.358;9.752;2023-06-14T06:27:48;101210.00;;;25.69;29.89
16613;BME280;8419;52.358;9.752;2023-06-14T06:30:35;101212.00;;;25.74;29.85
16613;BME280;8419;52.358;9.752;2023-06-14T06:33:21;101215.00;;;25.76;29.81
16613;BME280;8419;52.358;9.752;2023-06-14T06:36:07;101216.00;;;25.80;29.78
16613;BME280;8419;52.358;9.752;2023-06-14T06:38:53;101222.00;;;25.82;29.73
16613;BME280;8419;52.358;9.752;2023-06-14T06:41:39;101219.00;;;25.80;29.79
16613;BME280;8419;52.358;9.752;2023-06-14T06:44:25;101215.00;;;25.84;29.74
16613;BME280;8419;52.358;9.752;2023-06-14T06:47:10;101223.00;;;25.87;29.74
16613;BME280;8419;52.358;9.752;2023-06-14T06:49:56;101234.00;;;25.85;29.73
16613;BME280;8419;52.358;9.752;2023-06-14T06:52:42;101230.00;;;25.85;29.68
16613;BME280;8419;52.358;9.752;2023-06-14T06:55:27;101239.00;;;25.87;29.67
16613;BME280;8419;52.358;9.752;2023-06-14T06:58:14;101239.00;;;25.92;29.68
16613;BME280;8419;52.358;9.752;2023-06-14T07:01:00;101242.00;;;25.97;29.66
16613;BME280;8419;52.358;9.752;2023-06-14T07:03:46;101248.00;;;26.02;29.63
16613;BME280;8419;52.358;9.752;2023-06-14T07:06:32;101247.00;;;26.03;29.57
16613;BME280;8419;52.358;9.752;2023-06-14T07:09:18;101249.00;;;26.06;29.53
16613;BME280;8419;52.358;9.752;2023-06-14T07:12:06;101246.00;;;26.10;29.46
16613;BME280;8419;52.358;9.752;2023-06-14T07:14:52;101248.00;;;26.10;29.48
16613;BME280;8419;52.358;9.752;2023-06-14T07:17:38;101247.00;;;26.18;29.40
16613;BME280;8419;52.358;9.752;2023-06-14T07:20:24;101258.00;;;26.29;29.21
16613;BME280;8419;52.358;9.752;2023-06-14T07:23:10;101249.00;;;26.32;29.15
16613;BME280;8419;52.358;9.752;2023-06-14T07:25:55;101257.00;;;26.37;29.10
16613;BME280;8419;52.358;9.752;2023-06-14T07:28:41;101260.00;;;26.43;29.01
16613;BME280;8419;52.358;9.752;2023-06-14T07:31:30;101256.00;;;26.49;28.97
16613;BME280;8419;52.358;9.752;2023-06-14T07:34:15;101261.00;;;26.58;28.84
16613;BME280;8419;52.358;9.752;2023-06-14T07:37:01;101261.00;;;26.68;28.70
16613;BME280;8419;52.358;9.752;2023-06-14T07:39:47;101258.00;;;26.73;28.60
16613;BME280;8419;52.358;9.752;2023-06-14T07:42:33;101257.00;;;26.80;28.51
16613;BME280;8419;52.358;9.752;2023-06-14T07:45:19;101262.00;;;26.83;28.47
16613;BME280;8419;52.358;9.752;2023-06-14T07:48:05;101252.00;;;26.85;28.46
16613;BME280;8419;52.358;9.752;2023-06-14T07:50:50;101259.00;;;26.83;28.50
16613;BME280;8419;52.358;9.752;2023-06-14T07:53:36;101258.00;;;26.86;28.49
16613;BME280;8419;52.358;9.752;2023-06-14T07:56:22;101260.00;;;26.91;28.31
16613;BME280;8419;52.358;9.752;2023-06-14T07:59:10;101253.00;;;26.96;28.27
16613;BME280;8419;52.358;9.752;2023-06-14T08:01:55;101257.00;;;27.03;28.19
16613;BME280;8419;52.358;9.752;2023-06-14T08:04:41;101247.00;;;27.05;28.14
16613;BME280;8419;52.358;9.752;2023-06-14T08:07:27;101255.00;;;27.10;28.09
16613;BME280;8419;52.358;9.752;2023-06-14T08:10:12;101262.00;;;27.17;27.91
16613;BME280;8419;52.358;9.752;2023-06-14T08:12:58;101259.00;;;27.22;27.81
16613;BME280;8419;52.358;9.752;2023-06-14T08:15:44;101253.00;;;27.23;27.76
16613;BME280;8419;52.358;9.752;2023-06-14T08:18:31;101262.00;;;27.25;27.72
16613;BME280;8419;52.358;9.752;2023-06-14T08:21:17;101260.00;;;27.32;27.62
16613;BME280;8419;52.358;9.752;2023-06-14T08:24:03;101262.00;;;27.45;27.38
16613;BME280;8419;52.358;9.752;2023-06-14T08:26:49;101255.00;;;27.52;27.24
16613;BME280;8419;52.358;9.752;2023-06-14T08:29:35;101263.00;;;27.62;27.17
16613;BME280;8419;52.358;9.752;2023-06-14T08:32:20;101257.00;;;27.69;27.13
16613;BME280;8419;52.358;9.752;2023-06-14T08:35:07;101260.00;;;27.71;27.15
16613;BME280;8419;52.358;9.752;2023-06-14T08:37:53;101268.00;;;27.83;27.04
16613;BME280;8419;52.358;9.752;2023-06-14T08:40:40;101256.00;;;27.85;26.98
16613;BME280;8419;52.358;9.752;2023-06-14T08:43:27;101262.00;;;27.92;26.85
16613;BME280;8419;52.358;9.752;2023-06-14T08:46:13;101262.00;;;27.98;26.76
16613;BME280;8419;52.358;9.752;2023-06-14T08:49:04;101258.00;;;27.99;26.70
16613;BME280;8419;52.358;9.752;2023-06-14T08:51:57;101263.00;;;28.04;26.65
16613;BME280;8419;52.358;9.752;2023-06-14T08:54:43;101261.00;;;28.12;26.54
16613;BME280;8419;52.358;9.752;2023-06-14T08:57:29;101253.00;;;28.19;26.46
16613;BME280;8419;52.358;9.752;2023-06-14T09:00:18;101258.00;;;28.24;26.34
16613;BME280;8419;52.358;9.752;2023-06-14T09:03:05;101261.00;;;28.25;26.25
16613;BME280;8419;52.358;9.752;2023-06-14T09:05:57;101269.00;;;28.28;26.12
16613;BME280;8419;52.358;9.752;2023-06-14T09:08:44;101267.00;;;28.34;26.08
16613;BME280;8419;52.358;9.752;2023-06-14T09:11:30;101271.00;;;28.43;25.92
16613;BME280;8419;52.358;9.752;2023-06-14T09:14:17;101271.00;;;28.51;25.83
16613;BME280;8419;52.358;9.752;2023-06-14T09:17:04;101275.00;;;28.51;25.79
16613;BME280;8419;52.358;9.752;2023-06-14T09:19:49;101260.00;;;28.56;25.73
16613;BME280;8419;52.358;9.752;2023-06-14T09:22:35;101270.00;;;28.63;25.63
16613;BME280;8419;52.358;9.752;2023-06-14T09:25:21;101265.00;;;28.72;25.44
16613;BME280;8419;52.358;9.752;2023-06-14T09:28:07;101269.00;;;28.79;25.18
16613;BME280;8419;52.358;9.752;2023-06-14T09:30:55;101277.00;;;28.82;25.14
16613;BME280;8419;52.358;9.752;2023-06-14T09:33:42;101274.00;;;28.90;25.04
16613;BME280;8419;52.358;9.752;2023-06-14T09:36:33;101272.00;;;29.02;24.98
16613;BME280;8419;52.358;9.752;2023-06-14T09:39:19;101277.00;;;29.10;24.86
16613;BME280;8419;52.358;9.752;2023-06-14T09:42:17;101288.00;;;29.21;24.79
16613;BME280;8419;52.358;9.752;2023-06-14T09:45:05;101275.00;;;29.31;24.73
16613;BME280;8419;52.358;9.752;2023-06-14T09:47:51;101276.00;;;29.39;24.57
16613;BME280;8419;52.358;9.752;2023-06-14T09:50:37;101273.00;;;29.51;24.47
16613;BME280;8419;52.358;9.752;2023-06-14T09:53:24;101274.00;;;29.62;24.35
16613;BME280;8419;52.358;9.752;2023-06-14T09:56:12;101267.00;;;29.79;24.19
16613;BME280;8419;52.358;9.752;2023-06-14T09:58:59;101261.00;;;29.87;24.16
16613;BME280;8419;52.358;9.752;2023-06-14T10:01:45;101267.00;;;30.00;24.06
16613;BME280;8419;52.358;9.752;2023-06-14T10:04:34;101259.00;;;30.11;23.92
16613;BME280;8419;52.358;9.752;2023-06-14T10:07:20;101258.00;;;30.29;23.80
16613;BME280;8419;52.358;9.752;2023-06-14T10:10:07;101255.00;;;30.48;23.64
16613;BME280;8419;52.358;9.752;2023-06-14T10:12:53;101254.00;;;30.55;23.58
16613;BME280;8419;52.358;9.752;2023-06-14T10:15:45;101254.00;;;30.69;23.48
16613;BME280;8419;52.358;9.752;2023-06-14T10:18:38;101257.00;;;30.79;23.37
16613;BME280;8419;52.358;9.752;2023-06-14T10:21:32;101249.00;;;30.94;23.32
16613;BME280;8419;52.358;9.752;2023-06-14T10:24:18;101257.00;;;31.18;23.09
16613;BME280;8419;52.358;9.752;2023-06-14T10:27:07;101250.00;;;31.32;22.95
16613;BME280;8419;52.358;9.752;2023-06-14T10:30:10;101249.00;;;31.45;22.78
16613;BME280;8419;52.358;9.752;2023-06-14T10:33:06;101229.00;;;31.67;22.65
16613;BME280;8419;52.358;9.752;2023-06-14T10:36:07;101241.00;;;31.83;22.52
16613;BME280;8419;52.358;9.752;2023-06-14T10:39:05;101243.00;;;32.03;22.39
16613;BME280;8419;52.358;9.752;2023-06-14T10:41:54;101242.00;;;32.18;22.34
16613;BME280;8419;52.358;9.752;2023-06-14T10:44:41;101246.00;;;32.40;22.16
16613;BME280;8419;52.358;9.752;2023-06-14T10:47:30;101249.00;;;32.65;21.96
16613;BME280;8419;52.358;9.752;2023-06-14T10:50:28;101249.00;;;32.89;21.73
16613;BME280;8419;52.358;9.752;2023-06-14T10:53:24;101242.00;;;33.16;21.49
16613;BME280;8419;52.358;9.752;2023-06-14T10:56:23;101232.00;;;33.40;21.30
16613;BME280;8419;52.358;9.752;2023-06-14T10:59:12;101233.00;;;33.68;21.08
16613;BME280;8419;52.358;9.752;2023-06-14T11:02:16;101242.00;;;33.73;20.99
16613;BME280;8419;52.358;9.752;2023-06-14T11:05:09;101242.00;;;33.58;21.10
16613;BME280;8419;52.358;9.752;2023-06-14T11:08:14;101248.00;;;33.59;21.07
16613;BME280;8419;52.358;9.752;2023-06-14T11:11:07;101227.00;;;33.60;21.07
16613;BME280;8419;52.358;9.752;2023-06-14T11:13:53;101236.00;;;33.71;20.98
16613;BME280;8419;52.358;9.752;2023-06-14T11:16:41;101233.00;;;33.95;20.76
16613;BME280;8419;52.358;9.752;2023-06-14T11:19:26;101228.00;;;34.14;20.62
16613;BME280;8419;52.358;9.752;2023-06-14T11:22:13;101240.00;;;34.26;20.50
16613;BME280;8419;52.358;9.752;2023-06-14T11:25:01;101237.00;;;34.45;20.25
16613;BME280;8419;52.358;9.752;2023-06-14T11:27:50;101229.00;;;34.56;20.08
16613;BME280;8419;52.358;9.752;2023-06-14T11:30:36;101225.00;;;34.70;19.95
16613;BME280;8419;52.358;9.752;2023-06-14T11:33:23;101221.00;;;34.75;19.89
16613;BME280;8419;52.358;9.752;2023-06-14T11:36:08;101222.00;;;34.98;19.72
16613;BME280;8419;52.358;9.752;2023-06-14T11:38:59;101219.00;;;35.20;19.54
16613;BME280;8419;52.358;9.752;2023-06-14T11:41:45;101223.00;;;35.11;19.53
16613;BME280;8419;52.358;9.752;2023-06-14T11:44:32;101217.00;;;35.16;19.51
16613;BME280;8419;52.358;9.752;2023-06-14T11:47:19;101213.00;;;35.27;19.37
16613;BME280;8419;52.358;9.752;2023-06-14T11:50:06;101208.00;;;35.49;19.20
16613;BME280;8419;52.358;9.752;2023-06-14T11:52:53;101215.00;;;35.55;19.11
16613;BME280;8419;52.358;9.752;2023-06-14T11:55:40;101205.00;;;35.39;19.27
16613;BME280;8419;52.358;9.752;2023-06-14T11:58:26;101217.00;;;35.36;19.26
16613;BME280;8419;52.358;9.752;2023-06-14T12:01:16;101209.00;;;35.21;19.37
16613;BME280;8419;52.358;9.752;2023-06-14T12:04:02;101212.00;;;35.13;19.42
16613;BME280;8419;52.358;9.752;2023-06-14T12:06:48;101209.00;;;35.04;19.46
16613;BME280;8419;52.358;9.752;2023-06-14T12:09:38;101209.00;;;35.21;19.34
16613;BME280;8419;52.358;9.752;2023-06-14T12:12:25;101204.00;;;35.64;18.98
16613;BME280;8419;52.358;9.752;2023-06-14T12:15:10;101201.00;;;35.79;18.90
16613;BME280;8419;52.358;9.752;2023-06-14T12:17:57;101205.00;;;35.82;18.86
16613;BME280;8419;52.358;9.752;2023-06-14T12:20:43;101196.00;;;35.86;18.94
16613;BME280;8419;52.358;9.752;2023-06-14T12:23:47;101203.00;;;36.03;18.71
16613;BME280;8419;52.358;9.752;2023-06-14T12:26:33;101198.00;;;36.24;18.62
16613;BME280;8419;52.358;9.752;2023-06-14T12:29:19;101196.00;;;36.86;18.20
16613;BME280;8419;52.358;9.752;2023-06-14T12:32:06;101186.00;;;37.83;17.54
16613;BME280;8419;52.358;9.752;2023-06-14T12:34:52;101189.00;;;38.16;17.18
16613;BME280;8419;52.358;9.752;2023-06-14T12:37:38;101187.00;;;38.07;17.26
16613;BME280;8419;52.358;9.752;2023-06-14T12:40:24;101186.00;;;38.00;17.30
16613;BME280;8419;52.358;9.752;2023-06-14T12:43:09;101192.00;;;37.90;17.33
16613;BME280;8419;52.358;9.752;2023-06-14T12:45:55;101191.00;;;37.70;17.47
16613;BME280;8419;52.358;9.752;2023-06-14T12:48:41;101191.00;;;38.03;17.24
16613;BME280;8419;52.358;9.752;2023-06-14T12:51:27;101190.00;;;38.56;16.89
16613;BME280;8419;52.358;9.752;2023-06-14T12:54:12;101191.00;;;39.35;16.30
16613;BME280;8419;52.358;9.752;2023-06-14T12:57:00;101194.00;;;40.42;15.58
16613;BME280;8419;52.358;9.752;2023-06-14T12:59:45;101180.00;;;41.09;15.09
16613;BME280;8419;52.358;9.752;2023-06-14T13:02:30;101183.00;;;40.71;15.32
16613;BME280;8419;52.358;9.752;2023-06-14T13:05:16;101181.00;;;39.84;15.88
16613;BME280;8419;52.358;9.752;2023-06-14T13:08:02;101185.00;;;39.33;16.24
16613;BME280;8419;52.358;9.752;2023-06-14T13:10:49;101184.00;;;40.16;15.63
16613;BME280;8419;52.358;9.752;2023-06-14T13:13:35;101188.00;;;41.65;14.50
16613;BME280;8419;52.358;9.752;2023-06-14T13:16:20;101182.00;;;42.98;13.62
16613;BME280;8419;52.358;9.752;2023-06-14T13:19:06;101171.00;;;44.00;12.98
16613;BME280;8419;52.358;9.752;2023-06-14T13:21:51;101176.00;;;44.74;12.52
16613;BME280;8419;52.358;9.752;2023-06-14T13:24:37;101179.00;;;45.73;12.01
16613;BME280;8419;52.358;9.752;2023-06-14T13:27:22;101165.00;;;46.61;11.54
16613;BME280;8419;52.358;9.752;2023-06-14T13:30:11;101165.00;;;47.23;11.17
16613;BME280;8419;52.358;9.752;2023-06-14T13:32:58;101161.00;;;46.86;11.27
16613;BME280;8419;52.358;9.752;2023-06-14T13:35:44;101149.00;;;45.73;11.89
16613;BME280;8419;52.358;9.752;2023-06-14T13:38:30;101156.00;;;44.43;12.63
16613;BME280;8419;52.358;9.752;2023-06-14T13:41:15;101157.00;;;43.40;13.16
16613;BME280;8419;52.358;9.752;2023-06-14T13:44:01;101159.00;;;42.97;13.42
16613;BME280;8419;52.358;9.752;2023-06-14T13:46:49;101151.00;;;43.82;12.86
16613;BME280;8419;52.358;9.752;2023-06-14T13:49:35;101150.00;;;45.53;11.82
16613;BME280;8419;52.358;9.752;2023-06-14T13:52:21;101150.00;;;46.01;11.51
16613;BME280;8419;52.358;9.752;2023-06-14T13:55:08;101154.00;;;44.67;12.28
16613;BME280;8419;52.358;9.752;2023-06-14T13:57:54;101152.00;;;43.03;13.21
16613;BME280;8419;52.358;9.752;2023-06-14T14:00:41;101152.00;;;41.45;14.19
16613;BME280;8419;52.358;9.752;2023-06-14T14:03:27;101149.00;;;40.25;14.90
16613;BME280;8419;52.358;9.752;2023-06-14T14:06:13;101154.00;;;39.29;15.51
16613;BME280;8419;52.358;9.752;2023-06-14T14:08:58;101146.00;;;38.51;15.96
16613;BME280;8419;52.358;9.752;2023-06-14T14:11:44;101147.00;;;37.86;16.30
16613;BME280;8419;52.358;9.752;2023-06-14T14:14:31;101144.00;;;37.33;16.63
16613;BME280;8419;52.358;9.752;2023-06-14T14:17:17;101146.00;;;36.88;16.95
16613;BME280;8419;52.358;9.752;2023-06-14T14:20:06;101154.00;;;36.80;16.97
16613;BME280;8419;52.358;9.752;2023-06-14T14:22:51;101150.00;;;36.81;16.92
16613;BME280;8419;52.358;9.752;2023-06-14T14:25:37;101152.00;;;37.44;16.54
16613;BME280;8419;52.358;9.752;2023-06-14T14:28:22;101147.00;;;39.28;15.23
16613;BME280;8419;52.358;9.752;2023-06-14T14:31:08;101150.00;;;40.19;14.57
16613;BME280;8419;52.358;9.752;2023-06-14T14:33:53;101147.00;;;40.04;14.69
16613;BME280;8419;52.358;9.752;2023-06-14T14:36:39;101139.00;;;39.45;15.14
16613;BME280;8419;52.358;9.752;2023-06-14T14:39:27;101137.00;;;38.94;15.55
16613;BME280;8419;52.358;9.752;2023-06-14T14:42:12;101132.00;;;38.60;15.77
16613;BME280;8419;52.358;9.752;2023-06-14T14:44:58;101132.00;;;38.44;15.95